sensor_id;sensor_type;location;lat;lon;timestamp;P1;P2;P0
57563;PMS7003;43400;45.926;6.724;2023-02-15T00:01:06;22.25;19.25;13.00
57563;PMS7003;43400;45.926;6.724;2023-02-15T00:03:39;20.67;19.67;16.00
57563;PMS7003;43400;45.926;6.724;2023-02-15T00:06:11;18.60;18.60;15.00
57563;PMS7003;43400;45.926;6.724;2023-02-15T00:08:42;20.25;19.00;14.50
57563;PMS7003;43400;45.926;6.724;2023-02-15T00:11:17;22.25;19.25;13.00
57563;PMS7003;43400;45.926;6.724;2023-02-15T00:13:50;16.00;15.20;12.20
57563;PMS7003;43400;45.926;6.724;2023-02-15T00:16:21;14.60;14.60;12.00
57563;PMS7003;43400;45.926;6.724;2023-02-15T00:18:53;20.40;19.60;15.20
57563;PMS7003;43400;45.926;6.724;2023-02-15T00:21:25;22.60;19.20;12.00
57563;PMS7003;43400;45.926;6.724;2023-02-15T00:23:57;19.00;18.00;12.20
57563;PMS7003;43400;45.926;6.724;2023-02-15T00:26:38;19.50;18.00;12.00
57563;PMS7003;43400;45.926;6.724;2023-02-15T00:29:11;18.00;16.40;12.80
57563;PMS7003;43400;45.926;6.724;2023-02-15T00:31:45;22.00;20.00;15.00
57563;PMS7003;43400;45.926;6.724;2023-02-15T00:34:22;25.20;23.60;18.00
57563;PMS7003;43400;45.926;6.724;2023-02-15T00:36:58;26.00;24.00;15.40
57563;PMS7003;43400;45.926;6.724;2023-02-15T00:39:30;22.25;22.00;15.75
57563;PMS7003;43400;45.926;6.724;2023-02-15T00:42:03;38.00;32.75;18.75
57563;PMS7003;43400;45.926;6.724;2023-02-15T00:44:35;31.40;31.40;22.00
57563;PMS7003;43400;45.926;6.724;2023-02-15T00:47:07;32.50;31.00;20.50
57563;PMS7003;43400;45.926;6.724;2023-02-15T00:49:39;26.00;26.00;20.00
57563;PMS7003;43400;45.926;6.724;2023-02-15T00:52:10;29.75;25.75;15.00
57563;PMS7003;43400;45.926;6.724;2023-02-15T00:54:42;29.75;26.75;17.50
57563;PMS7003;43400;45.926;6.724;2023-02-15T00:57:14;28.20;25.60;18.60
57563;PMS7003;43400;45.926;6.724;2023-02-15T00:59:46;23.00;22.50;15.50
57563;PMS7003;43400;45.926;6.724;2023-02-15T01:02:18;20.00;18.20;14.20
57563;PMS7003;43400;45.926;6.724;2023-02-15T01:04:50;23.50;20.50;13.50
57563;PMS7003;43400;45.926;6.724;2023-02-15T01:07:22;19.00;19.00;13.00
57563;PMS7003;43400;45.926;6.724;2023-02-15T01:09:54;23.00;22.20;13.40
57563;PMS7003;43400;45.926;6.724;2023-02-15T01:12:26;26.50;26.00;19.00
57563;PMS7003;43400;45.926;6.724;2023-02-15T01:14:58;30.00;29.00;19.00
57563;PMS7003;43400;45.926;6.724;2023-02-15T01:17:30;33.00;32.00;18.60
57563;PMS7003;43400;45.926;6.724;2023-02-15T01:20:05;28.25;28.25;19.50
57563;PMS7003;43400;45.926;6.724;2023-02-15T01:22:38;30.80;29.20;18.60
57563;PMS7003;43400;45.926;6.724;2023-02-15T01:25:10;27.60;25.00;16.00
57563;PMS7003;43400;45.926;6.724;2023-02-15T01:27:44;23.50;23.50;18.25
57563;PMS7003;43400;45.926;6.724;2023-02-15T01:30:16;18.75;15.75;13.00
57563;PMS7003;43400;45.926;6.724;2023-02-15T01:32:49;17.00;17.00;11.50
57563;PMS7003;43400;45.926;6.724;2023-02-15T01:35:22;13.60;13.60;9.40
57563;PMS7003;43400;45.926;6.724;2023-02-15T01:37:55;11.75;11.00;8.25
57563;PMS7003;43400;45.926;6.724;2023-02-15T01:40:27;17.75;16.50;12.50
57563;PMS7003;43400;45.926;6.724;2023-02-15T01:42:59;14.40;14.40;10.20
57563;PMS7003;43400;45.926;6.724;2023-02-15T01:45:31;43.00;37.75;26.00
57563;PMS7003;43400;45.926;6.724;2023-02-15T01:48:04;21.00;19.00;14.80
57563;PMS7003;43400;45.926;6.724;2023-02-15T01:50:50;25.80;24.60;18.00
57563;PMS7003;43400;45.926;6.724;2023-02-15T01:53:35;27.40;24.40;16.40
57563;PMS7003;43400;45.926;6.724;2023-02-15T01:56:21;28.75;28.75;18.00
57563;PMS7003;43400;45.926;6.724;2023-02-15T01:58:55;37.25;32.25;21.00
57563;PMS7003;43400;45.926;6.724;2023-02-15T02:01:30;39.60;37.00;25.00
57563;PMS7003;43400;45.926;6.724;2023-02-15T02:06:48;29.00;29.00;21.00
57563;PMS7003;43400;45.926;6.724;2023-02-15T02:09:21;18.25;17.50;13.50
57563;PMS7003;43400;45.926;6.724;2023-02-15T02:11:53;11.80;11.20;8.20
57563;PMS7003;43400;45.926;6.724;2023-02-15T02:14:24;12.80;12.80;9.00
57563;PMS7003;43400;45.926;6.724;2023-02-15T02:34:48;11.60;10.20;8.80
57563;PMS7003;43400;45.926;6.724;2023-02-15T02:37:37;14.20;13.40;10.60
57563;PMS7003;43400;45.926;6.724;2023-02-15T02:40:34;14.00;14.00;9.00
57563;PMS7003;43400;45.926;6.724;2023-02-15T02:46:22;11.80;11.00;8.00
57563;PMS7003;43400;45.926;6.724;2023-02-15T02:48:59;14.00;12.00;8.50
57563;PMS7003;43400;45.926;6.724;2023-02-15T02:51:31;8.00;8.00;7.00
57563;PMS7003;43400;45.926;6.724;2023-02-15T02:54:04;10.20;9.40;7.00
57563;PMS7003;43400;45.926;6.724;2023-02-15T02:56:41;7.00;7.00;5.50
57563;PMS7003;43400;45.926;6.724;2023-02-15T02:59:16;8.20;8.20;7.00
57563;PMS7003;43400;45.926;6.724;2023-02-15T03:04:35;10.60;9.00;8.00
57563;PMS7003;43400;45.926;6.724;2023-02-15T03:07:15;7.25;6.50;5.00
57563;PMS7003;43400;45.926;6.724;2023-02-15T03:09:52;6.50;5.00;4.00
57563;PMS7003;43400;45.926;6.724;2023-02-15T03:12:36;8.25;8.00;5.00
57563;PMS7003;43400;45.926;6.724;2023-02-15T03:15:15;8.00;8.00;7.00
57563;PMS7003;43400;45.926;6.724;2023-02-15T03:17:57;9.40;7.20;5.40
57563;PMS7003;43400;45.926;6.724;2023-02-15T03:20:33;10.20;9.40;8.00
57563;PMS7003;43400;45.926;6.724;2023-02-15T03:23:09;11.00;11.00;8.00
57563;PMS7003;43400;45.926;6.724;2023-02-15T03:25:46;11.00;10.20;7.00
57563;PMS7003;43400;45.926;6.724;2023-02-15T03:28:25;6.50;6.50;4.25
57563;PMS7003;43400;45.926;6.724;2023-02-15T03:31:04;7.00;7.00;5.50
57563;PMS7003;43400;45.926;6.724;2023-02-15T03:33:40;11.00;9.40;8.00
57563;PMS7003;43400;45.926;6.724;2023-02-15T03:36:20;12.00;12.00;11.00
57563;PMS7003;43400;45.926;6.724;2023-02-15T03:41:40;14.00;14.00;11.00
57563;PMS7003;43400;45.926;6.724;2023-02-15T03:44:43;17.25;14.75;12.00
57563;PMS7003;43400;45.926;6.724;2023-02-15T03:47:34;31.00;31.00;22.00
57563;PMS7003;43400;45.926;6.724;2023-02-15T03:50:18;20.20;20.20;14.00
57563;PMS7003;43400;45.926;6.724;2023-02-15T03:52:57;20.50;16.00;12.00
57563;PMS7003;43400;45.926;6.724;2023-02-15T03:55:33;13.00;13.00;11.00
57563;PMS7003;43400;45.926;6.724;2023-02-15T03:58:06;17.50;15.50;12.00
57563;PMS7003;43400;45.926;6.724;2023-02-15T04:00:39;13.67;13.33;11.00
57563;PMS7003;43400;45.926;6.724;2023-02-15T04:06:06;21.00;20.50;14.75
57563;PMS7003;43400;45.926;6.724;2023-02-15T04:08:37;17.00;16.50;12.00
57563;PMS7003;43400;45.926;6.724;2023-02-15T04:11:09;18.50;18.50;14.00
57563;PMS7003;43400;45.926;6.724;2023-02-15T04:13:41;15.00;14.00;11.00
57563;PMS7003;43400;45.926;6.724;2023-02-15T04:16:13;14.00;12.00;10.20
57563;PMS7003;43400;45.926;6.724;2023-02-15T04:18:44;13.50;13.50;10.00
57563;PMS7003;43400;45.926;6.724;2023-02-15T04:21:16;11.25;11.00;8.00
57563;PMS7003;43400;45.926;6.724;2023-02-15T04:23:47;11.00;11.00;8.80
57563;PMS7003;43400;45.926;6.724;2023-02-15T04:26:19;12.67;12.67;8.00
57563;PMS7003;43400;45.926;6.724;2023-02-15T04:28:51;14.00;13.50;10.00
57563;PMS7003;43400;45.926;6.724;2023-02-15T04:31:22;15.00;14.40;11.40
57563;PMS7003;43400;45.926;6.724;2023-02-15T04:33:54;17.00;17.00;11.50
57563;PMS7003;43400;45.926;6.724;2023-02-15T04:36:25;11.20;11.20;7.80
57563;PMS7003;43400;45.926;6.724;2023-02-15T04:38:57;13.20;12.40;10.00
57563;PMS7003;43400;45.926;6.724;2023-02-15T04:41:29;11.75;11.75;10.25
57563;PMS7003;43400;45.926;6.724;2023-02-15T04:44:01;10.00;10.00;8.00
57563;PMS7003;43400;45.926;6.724;2023-02-15T04:46:33;12.00;12.00;8.40
57563;PMS7003;43400;45.926;6.724;2023-02-15T04:49:04;14.00;14.00;10.25
57563;PMS7003;43400;45.926;6.724;2023-02-15T04:51:36;21.50;20.50;14.50
57563;PMS7003;43400;45.926;6.724;2023-02-15T04:54:08;14.00;13.00;11.00
57563;PMS7003;43400;45.926;6.724;2023-02-15T04:56:39;16.60;14.40;11.00
57563;PMS7003;43400;45.926;6.724;2023-02-15T04:59:11;14.50;14.50;12.00
57563;PMS7003;43400;45.926;6.724;2023-02-15T05:01:44;16.80;15.20;10.80
57563;PMS7003;43400;45.926;6.724;2023-02-15T05:04:15;11.00;11.00;8.00
57563;PMS7003;43400;45.926;6.724;2023-02-15T05:06:47;13.40;13.40;10.00
57563;PMS7003;43400;45.926;6.724;2023-02-15T05:09:19;11.00;11.00;10.00
57563;PMS7003;43400;45.926;6.724;2023-02-15T05:11:50;14.00;11.00;8.00
57563;PMS7003;43400;45.926;6.724;2023-02-15T05:14:22;16.50;14.50;11.00
57563;PMS7003;43400;45.926;6.724;2023-02-15T05:16:54;10.25;10.25;7.25
57563;PMS7003;43400;45.926;6.724;2023-02-15T05:19:25;12.00;10.40;8.00
57563;PMS7003;43400;45.926;6.724;2023-02-15T05:21:57;9.20;8.40;7.20
57563;PMS7003;43400;45.926;6.724;2023-02-15T05:24:29;17.00;15.00;11.00
57563;PMS7003;43400;45.926;6.724;2023-02-15T05:27:00;20.75;17.75;12.00
57563;PMS7003;43400;45.926;6.724;2023-02-15T05:29:32;17.75;17.00;14.00
57563;PMS7003;43400;45.926;6.724;2023-02-15T05:32:03;16.33;15.67;12.00
57563;PMS7003;43400;45.926;6.724;2023-02-15T05:34:35;10.50;10.00;8.00
57563;PMS7003;43400;45.926;6.724;2023-02-15T05:37:07;12.00;11.75;10.00
57563;PMS7003;43400;45.926;6.724;2023-02-15T05:39:39;8.50;8.50;6.50
57563;PMS7003;43400;45.926;6.724;2023-02-15T05:42:10;10.25;10.25;7.25
57563;PMS7003;43400;45.926;6.724;2023-02-15T05:44:41;11.00;11.00;8.00
57563;PMS7003;43400;45.926;6.724;2023-02-15T05:47:13;11.00;11.00;8.00
57563;PMS7003;43400;45.926;6.724;2023-02-15T05:49:45;9.60;7.40;7.00
57563;PMS7003;43400;45.926;6.724;2023-02-15T05:52:16;10.20;9.60;8.00
57563;PMS7003;43400;45.926;6.724;2023-02-15T05:54:48;5.00;5.00;5.00
57563;PMS7003;43400;45.926;6.724;2023-02-15T05:57:20;11.00;11.00;7.00
57563;PMS7003;43400;45.926;6.724;2023-02-15T05:59:51;14.00;13.75;11.00
57563;PMS7003;43400;45.926;6.724;2023-02-15T06:02:23;13.00;11.40;10.00
57563;PMS7003;43400;45.926;6.724;2023-02-15T06:04:54;11.00;9.40;7.20
57563;PMS7003;43400;45.926;6.724;2023-02-15T06:07:26;13.20;13.20;10.60
57563;PMS7003;43400;45.926;6.724;2023-02-15T06:09:58;13.25;13.00;10.75
57563;PMS7003;43400;45.926;6.724;2023-02-15T06:12:29;13.80;13.80;10.80
57563;PMS7003;43400;45.926;6.724;2023-02-15T06:15:01;10.75;10.00;7.00
57563;PMS7003;43400;45.926;6.724;2023-02-15T06:17:32;13.50;12.00;10.00
57563;PMS7003;43400;45.926;6.724;2023-02-15T06:20:04;13.25;13.00;10.25
57563;PMS7003;43400;45.926;6.724;2023-02-15T06:22:36;14.00;13.00;10.00
57563;PMS7003;43400;45.926;6.724;2023-02-15T06:25:08;11.50;10.50;8.50
57563;PMS7003;43400;45.926;6.724;2023-02-15T06:27:42;10.00;10.00;7.00
57563;PMS7003;43400;45.926;6.724;2023-02-15T06:30:14;10.75;10.75;8.00
57563;PMS7003;43400;45.926;6.724;2023-02-15T06:32:46;10.75;10.75;8.00
57563;PMS7003;43400;45.926;6.724;2023-02-15T06:35:17;15.40;15.40;12.20
57563;PMS7003;43400;45.926;6.724;2023-02-15T06:37:49;19.00;19.00;14.75
57563;PMS7003;43400;45.926;6.724;2023-02-15T06:40:20;25.75;24.50;16.50
57563;PMS7003;43400;45.926;6.724;2023-02-15T06:42:52;26.00;26.00;17.00
57563;PMS7003;43400;45.926;6.724;2023-02-15T06:45:24;26.00;26.00;18.00
57563;PMS7003;43400;45.926;6.724;2023-02-15T06:47:55;22.60;20.40;15.00
57563;PMS7003;43400;45.926;6.724;2023-02-15T06:50:27;26.00;26.00;15.00
57563;PMS7003;43400;45.926;6.724;2023-02-15T06:52:59;20.00;20.00;13.00
57563;PMS7003;43400;45.926;6.724;2023-02-15T06:55:30;13.60;13.60;11.00
57563;PMS7003;43400;45.926;6.724;2023-02-15T06:58:02;14.50;14.00;9.00
57563;PMS7003;43400;45.926;6.724;2023-02-15T07:00:33;21.00;17.40;14.00
57563;PMS7003;43400;45.926;6.724;2023-02-15T07:03:05;18.50;17.25;13.00
57563;PMS7003;43400;45.926;6.724;2023-02-15T07:05:37;24.40;23.00;15.00
57563;PMS7003;43400;45.926;6.724;2023-02-15T07:08:08;21.67;20.00;14.67
57563;PMS7003;43400;45.926;6.724;2023-02-15T07:10:43;21.00;18.00;14.00
57563;PMS7003;43400;45.926;6.724;2023-02-15T07:13:15;18.00;17.00;13.00
57563;PMS7003;43400;45.926;6.724;2023-02-15T07:15:47;18.00;15.00;13.00
57563;PMS7003;43400;45.926;6.724;2023-02-15T07:18:19;17.00;15.00;11.00
57563;PMS7003;43400;45.926;6.724;2023-02-15T07:20:50;24.75;23.00;17.75
57563;PMS7003;43400;45.926;6.724;2023-02-15T07:23:22;20.75;20.75;14.00
57563;PMS7003;43400;45.926;6.724;2023-02-15T07:25:59;18.00;18.00;14.00
57563;PMS7003;43400;45.926;6.724;2023-02-15T07:28:32;18.00;17.00;13.00
57563;PMS7003;43400;45.926;6.724;2023-02-15T07:31:05;17.60;15.40;11.00
57563;PMS7003;43400;45.926;6.724;2023-02-15T07:33:37;16.40;16.20;12.20
57563;PMS7003;43400;45.926;6.724;2023-02-15T07:36:08;12.00;12.00;10.60
57563;PMS7003;43400;45.926;6.724;2023-02-15T07:38:40;19.60;18.80;14.00
57563;PMS7003;43400;45.926;6.724;2023-02-15T07:41:13;23.20;23.20;18.00
57563;PMS7003;43400;45.926;6.724;2023-02-15T07:43:46;22.50;20.75;17.00
57563;PMS7003;43400;45.926;6.724;2023-02-15T07:46:17;10.00;10.00;7.80
57563;PMS7003;43400;45.926;6.724;2023-02-15T07:48:49;14.00;14.00;10.25
57563;PMS7003;43400;45.926;6.724;2023-02-15T07:51:20;7.00;7.00;5.00
57563;PMS7003;43400;45.926;6.724;2023-02-15T07:53:52;5.00;5.00;5.00
57563;PMS7003;43400;45.926;6.724;2023-02-15T07:56:24;7.20;7.20;5.00
57563;PMS7003;43400;45.926;6.724;2023-02-15T07:58:55;7.50;7.50;6.00
57563;PMS7003;43400;45.926;6.724;2023-02-15T08:01:29;5.00;5.00;4.00
57563;PMS7003;43400;45.926;6.724;2023-02-15T08:04:06;8.00;7.00;5.00
57563;PMS7003;43400;45.926;6.724;2023-02-15T08:06:39;6.00;4.50;3.00
57563;PMS7003;43400;45.926;6.724;2023-02-15T08:09:11;7.40;7.40;7.00
57563;PMS7003;43400;45.926;6.724;2023-02-15T08:11:42;13.20;12.00;7.60
57563;PMS7003;43400;45.926;6.724;2023-02-15T08:14:15;14.60;14.00;10.40
57563;PMS7003;43400;45.926;6.724;2023-02-15T08:16:51;11.60;10.20;8.40
57563;PMS7003;43400;45.926;6.724;2023-02-15T08:19:25;28.00;26.50;17.00
57563;PMS7003;43400;45.926;6.724;2023-02-15T08:21:59;17.25;16.00;14.25
57563;PMS7003;43400;45.926;6.724;2023-02-15T08:24:33;19.40;18.00;14.00
57563;PMS7003;43400;45.926;6.724;2023-02-15T08:27:07;27.50;24.50;17.00
57563;PMS7003;43400;45.926;6.724;2023-02-15T08:29:40;51.00;44.00;25.00
57563;PMS7003;43400;45.926;6.724;2023-02-15T08:32:12;50.00;44.00;28.00
57563;PMS7003;43400;45.926;6.724;2023-02-15T08:34:44;55.20;48.80;32.80
57563;PMS7003;43400;45.926;6.724;2023-02-15T08:37:15;63.25;51.75;34.00
57563;PMS7003;43400;45.926;6.724;2023-02-15T08:39:46;54.60;48.40;32.00
57563;PMS7003;43400;45.926;6.724;2023-02-15T08:42:18;42.00;41.20;26.00
57563;PMS7003;43400;45.926;6.724;2023-02-15T08:44:50;38.00;36.00;24.80
57563;PMS7003;43400;45.926;6.724;2023-02-15T08:47:21;40.40;37.20;25.60
57563;PMS7003;43400;45.926;6.724;2023-02-15T08:49:53;25.80;25.80;19.00
57563;PMS7003;43400;45.926;6.724;2023-02-15T08:52:24;24.00;22.00;16.00
57563;PMS7003;43400;45.926;6.724;2023-02-15T08:54:56;33.00;32.00;23.00
57563;PMS7003;43400;45.926;6.724;2023-02-15T08:57:28;34.40;31.80;23.40
57563;PMS7003;43400;45.926;6.724;2023-02-15T08:59:59;38.50;35.50;23.00
57563;PMS7003;43400;45.926;6.724;2023-02-15T09:02:31;32.75;31.75;23.00
57563;PMS7003;43400;45.926;6.724;2023-02-15T09:05:02;32.25;31.00;21.75
57563;PMS7003;43400;45.926;6.724;2023-02-15T09:07:34;15.00;15.00;12.00
57563;PMS7003;43400;45.926;6.724;2023-02-15T09:10:05;14.25;14.00;11.00
57563;PMS7003;43400;45.926;6.724;2023-02-15T09:12:37;14.00;12.00;9.00
57563;PMS7003;43400;45.926;6.724;2023-02-15T09:15:09;17.00;17.00;13.00
57563;PMS7003;43400;45.926;6.724;2023-02-15T09:17:40;16.00;16.00;14.00
57563;PMS7003;43400;45.926;6.724;2023-02-15T09:20:12;20.20;18.80;14.40
57563;PMS7003;43400;45.926;6.724;2023-02-15T09:22:44;23.00;22.00;16.00
57563;PMS7003;43400;45.926;6.724;2023-02-15T09:25:15;18.75;18.00;15.00
57563;PMS7003;43400;45.926;6.724;2023-02-15T09:27:47;25.00;23.00;18.00
57563;PMS7003;43400;45.926;6.724;2023-02-15T09:30:19;28.00;26.50;20.00
57563;PMS7003;43400;45.926;6.724;2023-02-15T09:32:50;27.75;25.75;18.75
57563;PMS7003;43400;45.926;6.724;2023-02-15T09:35:22;30.00;28.50;19.50
57563;PMS7003;43400;45.926;6.724;2023-02-15T09:37:54;27.20;25.60;19.80
57563;PMS7003;43400;45.926;6.724;2023-02-15T09:40:25;45.25;43.00;30.00
57563;PMS7003;43400;45.926;6.724;2023-02-15T09:43:16;33.20;31.60;22.80
57563;PMS7003;43400;45.926;6.724;2023-02-15T09:46:08;37.20;33.80;22.60
57563;PMS7003;43400;45.926;6.724;2023-02-15T09:48:43;20.20;19.80;13.00
57563;PMS7003;43400;45.926;6.724;2023-02-15T09:53:57;16.20;15.00;12.00
57563;PMS7003;43400;45.926;6.724;2023-02-15T09:56:45;16.50;16.00;12.00
57563;PMS7003;43400;45.926;6.724;2023-02-15T10:32:37;2.00;2.00;1.00
57563;PMS7003;43400;45.926;6.724;2023-02-15T10:43:20;4.00;3.60;3.00
57563;PMS7003;43400;45.926;6.724;2023-02-15T10:46:37;4.00;3.00;2.00
57563;PMS7003;43400;45.926;6.724;2023-02-15T10:55:07;6.50;6.50;5.50
57563;PMS7003;43400;45.926;6.724;2023-02-15T10:58:07;7.00;6.20;4.60
57563;PMS7003;43400;45.926;6.724;2023-02-15T11:00:58;7.00;6.80;5.00
57563;PMS7003;43400;45.926;6.724;2023-02-15T11:04:10;4.60;4.00;3.20
57563;PMS7003;43400;45.926;6.724;2023-02-15T11:06:59;2.60;2.00;2.00
57563;PMS7003;43400;45.926;6.724;2023-02-15T11:09:48;5.00;4.00;3.00
57563;PMS7003;43400;45.926;6.724;2023-02-15T11:12:24;4.00;3.25;3.25
57563;PMS7003;43400;45.926;6.724;2023-02-15T11:15:36;4.50;4.50;3.50
57563;PMS7003;43400;45.926;6.724;2023-02-15T11:22:25;5.50;5.50;4.00
57563;PMS7003;43400;45.926;6.724;2023-02-15T11:25:19;5.25;5.25;4.25
57563;PMS7003;43400;45.926;6.724;2023-02-15T11:28:05;5.80;5.80;4.80
57563;PMS7003;43400;45.926;6.724;2023-02-15T11:31:24;5.75;4.75;3.75
57563;PMS7003;43400;45.926;6.724;2023-02-15T11:37:00;3.40;3.40;2.60
57563;PMS7003;43400;45.926;6.724;2023-02-15T11:39:38;3.80;3.80;3.60
57563;PMS7003;43400;45.926;6.724;2023-02-15T11:42:13;5.20;5.00;4.60
57563;PMS7003;43400;45.926;6.724;2023-02-15T11:47:26;5.00;4.60;3.00
57563;PMS7003;43400;45.926;6.724;2023-02-15T11:49:57;4.50;4.50;3.50
57563;PMS7003;43400;45.926;6.724;2023-02-15T11:52:31;4.25;4.25;3.25
57563;PMS7003;43400;45.926;6.724;2023-02-15T11:55:09;4.60;4.20;3.20
57563;PMS7003;43400;45.926;6.724;2023-02-15T12:04:36;3.20;3.20;3.00
57563;PMS7003;43400;45.926;6.724;2023-02-15T12:16:06;4.25;4.25;3.25
57563;PMS7003;43400;45.926;6.724;2023-02-15T12:18:43;5.00;4.00;3.25
57563;PMS7003;43400;45.926;6.724;2023-02-15T12:21:28;6.00;6.00;4.80
57563;PMS7003;43400;45.926;6.724;2023-02-15T12:24:45;5.60;5.60;5.00
57563;PMS7003;43400;45.926;6.724;2023-02-15T12:29:49;6.75;6.75;6.00
57563;PMS7003;43400;45.926;6.724;2023-02-15T12:32:24;6.25;6.25;5.00
57563;PMS7003;43400;45.926;6.724;2023-02-15T12:35:06;6.75;6.75;6.00
57563;PMS7003;43400;45.926;6.724;2023-02-15T12:37:52;6.00;6.00;5.00
57563;PMS7003;43400;45.926;6.724;2023-02-15T12:40:27;6.00;6.00;5.00
57563;PMS7003;43400;45.926;6.724;2023-02-15T12:42:59;4.25;4.25;4.00
57563;PMS7003;43400;45.926;6.724;2023-02-15T12:45:32;6.60;6.60;5.00
57563;PMS7003;43400;45.926;6.724;2023-02-15T12:48:17;6.75;6.75;5.25
57563;PMS7003;43400;45.926;6.724;2023-02-15T12:50:51;5.40;5.40;5.40
57563;PMS7003;43400;45.926;6.724;2023-02-15T12:53:30;7.00;7.00;6.00
57563;PMS7003;43400;45.926;6.724;2023-02-15T12:56:08;7.00;6.75;5.75
57563;PMS7003;43400;45.926;6.724;2023-02-15T12:58:41;5.50;5.00;4.75
57563;PMS7003;43400;45.926;6.724;2023-02-15T13:01:17;6.40;5.80;4.60
57563;PMS7003;43400;45.926;6.724;2023-02-15T13:06:47;5.20;5.20;4.00
57563;PMS7003;43400;45.926;6.724;2023-02-15T13:09:24;5.80;5.80;5.00
57563;PMS7003;43400;45.926;6.724;2023-02-15T13:12:19;6.00;5.25;4.25
57563;PMS7003;43400;45.926;6.724;2023-02-15T13:14:56;6.00;6.00;5.00
57563;PMS7003;43400;45.926;6.724;2023-02-15T13:17:30;5.75;5.00;4.75
57563;PMS7003;43400;45.926;6.724;2023-02-15T13:20:04;6.00;6.00;5.00
57563;PMS7003;43400;45.926;6.724;2023-02-15T13:22:39;4.00;4.00;3.75
57563;PMS7003;43400;45.926;6.724;2023-02-15T13:25:17;5.20;5.20;4.60
57563;PMS7003;43400;45.926;6.724;2023-02-15T13:27:53;5.80;5.80;5.00
57563;PMS7003;43400;45.926;6.724;2023-02-15T13:30:30;4.40;4.40;3.60
57563;PMS7003;43400;45.926;6.724;2023-02-15T13:33:03;4.50;4.50;3.25
57563;PMS7003;43400;45.926;6.724;2023-02-15T13:42:24;4.00;4.00;3.20
57563;PMS7003;43400;45.926;6.724;2023-02-15T13:48:18;2.60;2.60;2.60
57563;PMS7003;43400;45.926;6.724;2023-02-15T13:53:49;2.20;2.20;2.20
57563;PMS7003;43400;45.926;6.724;2023-02-15T14:02:20;4.50;4.00;3.50
57563;PMS7003;43400;45.926;6.724;2023-02-15T14:10:59;5.00;5.00;4.00
57563;PMS7003;43400;45.926;6.724;2023-02-15T14:19:54;4.00;4.00;3.00
57563;PMS7003;43400;45.926;6.724;2023-02-15T14:22:36;4.00;3.20;3.00
57563;PMS7003;43400;45.926;6.724;2023-02-15T14:28:12;3.40;2.60;2.40
57563;PMS7003;43400;45.926;6.724;2023-02-15T14:31:02;4.00;4.00;3.00
57563;PMS7003;43400;45.926;6.724;2023-02-15T14:33:38;2.60;2.60;2.60
57563;PMS7003;43400;45.926;6.724;2023-02-15T14:36:13;4.00;4.00;3.00
57563;PMS7003;43400;45.926;6.724;2023-02-15T14:41:53;5.67;5.67;4.00
57563;PMS7003;43400;45.926;6.724;2023-02-15T14:44:37;3.50;3.50;3.00
57563;PMS7003;43400;45.926;6.724;2023-02-15T14:47:18;3.80;3.80;3.80
57563;PMS7003;43400;45.926;6.724;2023-02-15T14:49:57;6.00;3.00;2.00
57563;PMS7003;43400;45.926;6.724;2023-02-15T14:52:29;3.75;3.75;3.50
57563;PMS7003;43400;45.926;6.724;2023-02-15T14:55:00;4.60;3.80;3.20
57563;PMS7003;43400;45.926;6.724;2023-02-15T14:57:32;3.80;3.80;3.00
57563;PMS7003;43400;45.926;6.724;2023-02-15T15:00:28;4.75;4.75;3.25
57563;PMS7003;43400;45.926;6.724;2023-02-15T15:03:01;4.75;4.75;4.00
57563;PMS7003;43400;45.926;6.724;2023-02-15T15:05:47;6.00;5.20;5.00
57563;PMS7003;43400;45.926;6.724;2023-02-15T15:08:25;3.40;3.40;2.80
57563;PMS7003;43400;45.926;6.724;2023-02-15T15:14:00;4.60;3.60;3.40
57563;PMS7003;43400;45.926;6.724;2023-02-15T15:19:09;4.80;4.80;4.00
57563;PMS7003;43400;45.926;6.724;2023-02-15T15:47:25;2.60;2.00;2.00
57563;PMS7003;43400;45.926;6.724;2023-02-15T15:50:21;2.40;2.20;2.00
57563;PMS7003;43400;45.926;6.724;2023-02-15T15:52:54;3.25;3.00;2.75
57563;PMS7003;43400;45.926;6.724;2023-02-15T15:55:29;4.00;3.00;2.75
57563;PMS7003;43400;45.926;6.724;2023-02-15T15:58:03;3.80;3.80;2.80
57563;PMS7003;43400;45.926;6.724;2023-02-15T16:00:48;3.00;3.00;3.00
57563;PMS7003;43400;45.926;6.724;2023-02-15T16:03:24;3.00;3.00;2.00
57563;PMS7003;43400;45.926;6.724;2023-02-15T16:05:58;4.00;3.60;2.60
57563;PMS7003;43400;45.926;6.724;2023-02-15T16:08:34;2.20;1.80;1.80
57563;PMS7003;43400;45.926;6.724;2023-02-15T16:11:12;3.00;3.00;2.20
57563;PMS7003;43400;45.926;6.724;2023-02-15T16:13:49;4.00;4.00;3.00
57563;PMS7003;43400;45.926;6.724;2023-02-15T16:16:22;2.00;2.00;2.00
57563;PMS7003;43400;45.926;6.724;2023-02-15T16:18:57;4.00;4.00;3.00
57563;PMS7003;43400;45.926;6.724;2023-02-15T16:21:31;4.00;3.00;2.00
57563;PMS7003;43400;45.926;6.724;2023-02-15T16:29:38;3.80;3.00;2.00
57563;PMS7003;43400;45.926;6.724;2023-02-15T16:32:26;4.80;4.00;3.00
57563;PMS7003;43400;45.926;6.724;2023-02-15T16:34:59;5.20;5.00;3.20
57563;PMS7003;43400;45.926;6.724;2023-02-15T16:37:32;3.50;3.50;2.50
57563;PMS7003;43400;45.926;6.724;2023-02-15T16:40:05;4.75;4.75;3.00
57563;PMS7003;43400;45.926;6.724;2023-02-15T16:42:38;5.00;4.00;3.00
57563;PMS7003;43400;45.926;6.724;2023-02-15T16:45:13;5.00;5.00;3.20
57563;PMS7003;43400;45.926;6.724;2023-02-15T16:47:49;5.00;4.00;3.00
57563;PMS7003;43400;45.926;6.724;2023-02-15T16:50:27;7.00;7.00;5.00
57563;PMS7003;43400;45.926;6.724;2023-02-15T16:53:03;10.20;10.20;8.20
57563;PMS7003;43400;45.926;6.724;2023-02-15T16:55:39;10.20;10.20;9.20
57563;PMS7003;43400;45.926;6.724;2023-02-15T16:58:15;7.40;7.00;5.00
57563;PMS7003;43400;45.926;6.724;2023-02-15T17:00:50;7.00;7.00;4.75
57563;PMS7003;43400;45.926;6.724;2023-02-15T17:03:23;6.80;4.40;3.00
57563;PMS7003;43400;45.926;6.724;2023-02-15T17:05:57;6.40;6.00;4.00
57563;PMS7003;43400;45.926;6.724;2023-02-15T17:08:31;6.60;6.60;5.60
57563;PMS7003;43400;45.926;6.724;2023-02-15T17:11:14;9.00;9.00;8.00
57563;PMS7003;43400;45.926;6.724;2023-02-15T17:14:17;9.00;8.50;6.00
57563;PMS7003;43400;45.926;6.724;2023-02-15T17:16:50;6.50;5.00;4.00
57563;PMS7003;43400;45.926;6.724;2023-02-15T17:19:44;6.00;6.00;5.20
57563;PMS7003;43400;45.926;6.724;2023-02-15T17:22:21;6.20;6.20;3.20
57563;PMS7003;43400;45.926;6.724;2023-02-15T17:24:58;7.00;7.00;6.00
57563;PMS7003;43400;45.926;6.724;2023-02-15T17:27:32;8.40;7.00;6.20
57563;PMS7003;43400;45.926;6.724;2023-02-15T17:30:12;6.80;6.00;4.00
57563;PMS7003;43400;45.926;6.724;2023-02-15T17:32:58;8.00;7.00;6.00
57563;PMS7003;43400;45.926;6.724;2023-02-15T17:35:31;7.00;7.00;4.00
57563;PMS7003;43400;45.926;6.724;2023-02-15T17:38:15;7.80;7.80;6.00
57563;PMS7003;43400;45.926;6.724;2023-02-15T17:40:49;6.40;6.40;4.00
57563;PMS7003;43400;45.926;6.724;2023-02-15T17:43:21;7.20;6.60;4.00
57563;PMS7003;43400;45.926;6.724;2023-02-15T17:45:53;8.00;7.00;6.00
57563;PMS7003;43400;45.926;6.724;2023-02-15T17:48:32;7.33;7.33;6.00
57563;PMS7003;43400;45.926;6.724;2023-02-15T17:51:07;7.00;7.00;6.00
57563;PMS7003;43400;45.926;6.724;2023-02-15T17:53:43;8.50;8.00;6.00
57563;PMS7003;43400;45.926;6.724;2023-02-15T17:56:15;7.25;7.25;6.00